FW3731 Weather Reports


Display with metric or nautical units.
time (UTC)temp
F
wind
direction
speed
MPH
gust
MPH
rain 1hr
in
rain 24hr
in
rain mn
in
humidity
%
barometer
mb
20240621040028 76 129 0.0 3.0 0.00 0.00 0.00 86 1022.2
20240621034516 76 224 0.0 3.0 0.00 0.00 0.00 88 1022.2
20240621033014 76 214 0.0 0.0 0.00 0.00 0.00 89 1022.0
20240621031516 75 205 0.0 1.0 0.00 0.00 0.00 89 1021.9
20240621030015 76 193 0.0 0.0 0.00 0.00 0.00 89 1021.9
20240621024518 76 194 0.0 0.0 0.00 0.00 0.00 88 1021.7
20240621023015 77 184 0.0 0.0 0.00 0.00 0.00 87 1021.7
20240621021511 78 166 0.0 0.0 0.00 0.00 0.00 86 1021.5
20240621020026 79 166 0.0 0.0 0.00 0.00 0.00 83 1021.5
20240621014517 80 166 0.0 0.0 0.00 0.00 0.00 82 1021.6
20240621013009 81 170 0.0 0.0 0.00 0.00 0.00 79 1021.5
20240621011508 83 160 0.0 0.0 0.00 0.00 0.00 74 1021.4
20240621010010 83 143 0.0 0.0 0.00 0.00 0.00 71 1021.4
20240621004507 84 153 0.0 0.0 0.00 0.00 0.00 70 1021.4
20240621003007 85 127 0.0 0.0 0.00 0.00 0.00 69 1021.4
20240621001508 85 158 0.0 1.0 0.00 0.00 0.00 65 1021.3
20240621000004 86 160 0.0 3.0 0.00 0.00 0.00 64 1021.4
20240620234503 87 144 2.0 6.0 0.00 0.00 0.00 62 1021.5
20240620233002 88 116 1.0 4.0 0.00 0.00 0.00 61 1021.6
20240620231611 89 157 2.0 5.0 0.00 0.00 0.00 60 1021.8
20240620231500 89 117 1.0 5.0 0.00 0.00 0.00 60 1021.8
20240620230105 88 120 0.0 3.0 0.00 0.00 0.00 60 1021.9
20240620224610 89 156 0.0 2.0 0.00 0.00 0.00 61 1021.9
20240620223107 87 151 0.0 3.0 0.00 0.00 0.00 64 1022.2
20240620221555 88 134 2.0 6.0 0.00 0.00 0.00 62 1022.3
20240620220055 90 59 0.0 1.0 0.00 0.00 0.00 57 1022.6
20240620214559 90 73 0.0 2.0 0.00 0.00 0.00 61 1022.8
20240620213052 90 39 0.0 3.0 0.00 0.00 0.00 55 1022.9
20240620211554 91 130 0.0 0.0 0.00 0.00 0.00 56 1023.0
20240620210054 89 136 0.0 3.0 0.00 0.00 0.00 57 1023.2
20240620204553 89 143 1.0 5.0 0.00 0.00 0.00 58 1023.3
20240620203100 89 148 2.0 5.0 0.00 0.00 0.00 57 1023.4
20240620201548 89 150 1.0 5.0 0.00 0.00 0.00 60 1023.5
20240620200049 89 117 0.0 3.0 0.00 0.00 0.00 58 1023.6
20240620194547 89 205 0.0 0.0 0.00 0.00 0.00 57 1023.7
20240620193047 90 151 0.0 3.0 0.00 0.00 0.00 56 1023.7
20240620191550 90 148 0.0 0.0 0.00 0.00 0.00 62 1023.9
20240620190043 89 204 0.0 0.0 0.00 0.00 0.00 59 1024.0
20240620184540 90 170 0.0 3.0 0.00 0.00 0.00 61 1024.0
20240620183045 89 143 0.0 3.0 0.00 0.00 0.00 61 1024.1
20240620181539 88 80 0.0 3.0 0.00 0.00 0.00 62 1024.3
20240620180037 88 25 0.0 0.0 0.00 0.00 0.00 60 1024.4
20240620174543 88 107 0.0 0.0 0.00 0.00 0.00 62 1024.4
20240620173036 88 54 0.0 2.0 0.00 0.00 0.00 64 1024.6
20240620171533 89 101 0.0 3.0 0.00 0.00 0.00 63 1024.7
20240620170032 89 155 0.0 2.0 0.00 0.00 0.00 61 1024.6
20240620164535 89 221 1.0 4.0 0.00 0.00 0.00 63 1024.6
20240620163035 89 171 0.0 3.0 0.00 0.00 0.00 63 1024.6
20240620161535 88 144 0.0 5.0 0.00 0.00 0.00 67 1024.7
20240620160023 87 219 2.0 4.0 0.00 0.00 0.00 66 1024.8
20240620154523 85 196 4.0 8.0 0.00 0.00 0.00 68 1024.9
20240620153020 85 171 3.0 10.0 0.00 0.00 0.00 69 1024.8
20240620151516 85 200 2.0 8.0 0.00 0.00 0.00 69 1024.8
20240620150016 85 159 1.0 7.0 0.00 0.00 0.00 72 1024.8
20240620144514 84 224 2.0 7.0 0.00 0.00 0.00 73 1025.0
20240620143013 85 233 1.0 5.0 0.00 0.00 0.00 72 1024.9
20240620141520 84 149 1.0 5.0 0.00 0.00 0.00 72 1024.9
20240620140009 83 243 1.0 5.0 0.00 0.00 0.00 74 1024.9
20240620134506 81 217 2.0 6.0 0.00 0.00 0.00 76 1024.7
20240620133006 82 238 0.0 7.0 0.00 0.00 0.00 76 1024.8
20240620131507 82 236 0.0 4.0 0.00 0.00 0.00 78 1024.7
20240620130004 81 193 2.0 7.0 0.00 0.00 0.00 77 1024.7
20240620124503 82 217 0.0 1.0 0.00 0.00 0.00 77 1024.6
20240620123112 81 124 0.0 2.0 0.00 0.00 0.00 78 1024.5
20240620121607 80 210 0.0 0.0 0.00 0.00 0.00 81 1024.5
20240620120052 78 236 0.0 0.0 0.00 0.00 0.00 88 1024.4
20240620114548 74 236 0.0 0.0 0.00 0.00 0.00 91 1024.5
20240620113046 72 228 0.0 0.0 0.00 0.00 0.00 93 1024.2
20240620111544 71 225 0.0 0.0 0.00 0.00 0.00 94 1024.1
20240620110043 71 225 0.0 1.0 0.00 0.00 0.00 94 1024.0
20240620104541 71 221 0.0 0.0 0.00 0.00 0.00 94 1023.9
20240620103043 71 221 0.0 0.0 0.00 0.00 0.00 93 1023.9
20240620101542 71 224 0.0 0.0 0.00 0.00 0.00 93 1023.6
20240620100037 72 224 0.0 0.0 0.00 0.00 0.00 92 1023.4
20240620094559 72 224 0.0 0.0 0.00 0.00 0.00 92 1023.3
20240620093030 72 224 0.0 0.0 0.00 0.00 0.00 91 1023.2
20240620091530 73 224 0.0 0.0 0.00 0.00 0.00 91 1023.3
20240620090028 73 231 0.0 0.0 0.00 0.00 0.00 89 1023.1
20240620084527 74 231 0.0 0.0 0.00 0.00 0.00 88 1023.0
20240620083036 74 231 0.0 1.0 0.00 0.00 0.00 87 1022.9
20240620081525 75 231 0.0 2.0 0.00 0.00 0.00 87 1022.9
20240620080025 75 214 0.0 2.0 0.00 0.00 0.00 86 1022.7
20240620074522 75 183 0.0 2.0 0.00 0.00 0.00 85 1022.6
20240620073021 76 198 0.0 3.0 0.00 0.00 0.00 85 1022.6
20240620071525 76 182 0.0 2.0 0.00 0.00 0.00 85 1022.6
20240620070024 76 214 0.0 4.0 0.00 0.00 0.00 85 1022.7
20240620064520 76 113 0.0 5.0 0.00 0.00 0.00 85 1022.7
20240620063015 75 192 0.0 3.0 0.00 0.00 0.00 86 1022.6
20240620061523 75 221 0.0 3.0 0.00 0.00 0.00 88 1022.5
20240620060009 73 210 2.0 4.0 0.00 0.00 0.00 91 1022.6
20240620054502 73 195 0.0 0.0 0.00 0.00 0.00 92 1022.4
20240620053107 73 221 0.0 2.0 0.00 0.00 0.00 93 1022.5
20240620051624 73 215 0.0 0.0 0.00 0.00 0.00 92 1022.5
20240620050123 73 226 0.0 0.0 0.00 0.00 0.00 92 1022.7
20240620044556 73 216 0.0 0.0 0.00 0.00 0.00 92 1022.6
20240620043052 74 209 0.0 0.0 0.00 0.00 0.00 91 1022.6
20240620041558 74 206 0.0 0.0 0.00 0.00 0.00 91 1022.6